Lakeland, Michigan
Current Conditions -  °F | °C
As of 6:55 PM on Monday 20 Oct 2014 (Local Time) from KOZW Reporting Station
Light Rain Light Rain  
Wind Chill: 53°   Ceiling: 3000
Heat Index: 53°   Visibility: 10mi
Dew Point: 49°   Wind: 6mph
Humidity: 85%   Direction: 220°SW
Pressure: 29.81"   Gusts: NA
Location:  42.46°N, 83.84°W
Report Text: KOZW 202255Z AUTO 22005KT 10SM -RA BKN030 OVC038 12/10 A2981 RMK AO2 T01190095
Loading
Personal Weather Stations






























Interactive Weather Map
Tropical Storm Tracking
New forecast layout! Learn more

10-Day Weather Forecast

Advertisements
Track Severe Weather on mobile